createdAt,value
2018-10-11T00:01:44.191Z,17.20
2018-10-11T00:04:13.892Z,17.30
2018-10-11T00:06:41.706Z,17.00
2018-10-11T00:09:10.483Z,16.70
2018-10-11T00:11:39.498Z,17.20
2018-10-11T00:14:07.460Z,16.90
2018-10-11T00:16:35.167Z,16.80
2018-10-11T00:19:03.805Z,16.90
2018-10-11T00:21:31.442Z,16.80
2018-10-11T00:23:59.067Z,16.10
2018-10-11T00:26:26.692Z,16.20
2018-10-11T00:28:54.361Z,16.50
2018-10-11T00:31:21.955Z,16.30
2018-10-11T00:33:49.579Z,16.10
2018-10-11T00:36:17.143Z,16.40
2018-10-11T00:38:44.755Z,16.50
2018-10-11T00:41:12.459Z,16.40
2018-10-11T00:43:41.327Z,16.40
2018-10-11T00:46:11.326Z,16.30
2018-10-11T00:48:39.163Z,16.50
2018-10-11T00:51:06.811Z,16.30
2018-10-11T00:53:34.460Z,16.40
2018-10-11T00:56:02.051Z,16.30
2018-10-11T00:58:30.535Z,16.20
2018-10-11T01:00:58.203Z,16.30
2018-10-11T01:03:26.404Z,16.00
2018-10-11T01:05:54.088Z,15.90
2018-10-11T01:08:21.724Z,15.90
2018-10-11T01:10:49.308Z,15.90
2018-10-11T01:13:16.927Z,16.00
2018-10-11T01:15:44.623Z,15.70
2018-10-11T01:18:12.291Z,15.70
2018-10-11T01:20:39.974Z,15.50
2018-10-11T01:23:07.563Z,15.70
2018-10-11T01:25:35.212Z,15.70
2018-10-11T01:28:02.851Z,15.70
2018-10-11T01:30:30.536Z,15.60
2018-10-11T01:32:58.152Z,15.70
2018-10-11T01:35:25.935Z,15.40
2018-10-11T01:37:53.914Z,15.60
2018-10-11T01:40:21.536Z,15.60
2018-10-11T01:42:58.598Z,15.50
2018-10-11T01:45:26.284Z,15.70
2018-10-11T01:47:53.880Z,15.60
2018-10-11T01:50:21.571Z,15.60
2018-10-11T01:52:49.174Z,15.40
2018-10-11T01:55:16.826Z,15.50
2018-10-11T01:57:44.476Z,15.70
2018-10-11T02:00:12.115Z,15.50
2018-10-11T02:02:39.757Z,15.60
2018-10-11T02:05:07.662Z,15.70
2018-10-11T02:07:35.279Z,15.50
2018-10-11T02:10:02.936Z,15.50
2018-10-11T02:12:30.576Z,15.50
2018-10-11T02:14:58.274Z,15.40
2018-10-11T02:17:25.933Z,15.50
2018-10-11T02:19:53.511Z,15.40
2018-10-11T02:22:21.163Z,15.10
2018-10-11T02:24:48.783Z,15.50
2018-10-11T02:27:16.494Z,15.40
2018-10-11T02:29:44.080Z,15.30
2018-10-11T02:32:11.841Z,15.30
2018-10-11T02:34:39.456Z,15.40
2018-10-11T02:37:07.095Z,15.40
2018-10-11T02:39:34.688Z,15.20
2018-10-11T02:42:02.290Z,15.30
2018-10-11T02:44:29.861Z,15.30
2018-10-11T02:46:57.426Z,15.00
2018-10-11T02:49:30.551Z,15.20
2018-10-11T02:51:58.359Z,15.10
2018-10-11T02:54:26.037Z,15.00
2018-10-11T02:56:57.255Z,14.70
2018-10-11T02:59:29.111Z,14.70
2018-10-11T03:01:56.852Z,14.40
2018-10-11T03:04:24.638Z,14.30
2018-10-11T03:06:52.639Z,14.10
2018-10-11T03:09:20.360Z,13.80
2018-10-11T03:11:48.001Z,14.00
2018-10-11T03:14:15.619Z,14.10
2018-10-11T03:16:43.259Z,14.10
2018-10-11T03:19:10.902Z,14.30
2018-10-11T03:21:38.526Z,13.80
2018-10-11T03:24:06.210Z,14.10
2018-10-11T03:26:33.810Z,14.10
2018-10-11T03:29:01.384Z,14.10
2018-10-11T03:31:28.995Z,14.00
2018-10-11T03:33:56.616Z,13.90
2018-10-11T03:36:24.280Z,13.80
2018-10-11T03:38:51.899Z,14.00
2018-10-11T03:41:19.475Z,13.40
2018-10-11T03:43:47.054Z,13.50
2018-10-11T03:46:14.693Z,13.60
2018-10-11T03:48:42.247Z,13.40
2018-10-11T03:51:09.878Z,13.70
2018-10-11T03:53:37.463Z,13.80
2018-10-11T03:56:05.224Z,13.70
2018-10-11T03:58:32.824Z,13.70
2018-10-11T04:01:00.485Z,13.80
2018-10-11T04:03:28.311Z,14.10
2018-10-11T04:05:55.926Z,14.00
2018-10-11T04:08:23.600Z,14.00
2018-10-11T04:10:51.263Z,14.00
2018-10-11T04:13:18.934Z,13.90
2018-10-11T04:15:46.596Z,14.20
2018-10-11T04:18:14.275Z,13.90
2018-10-11T04:20:41.974Z,13.80
2018-10-11T04:23:14.126Z,13.70
2018-10-11T04:25:41.747Z,13.90
2018-10-11T04:28:09.383Z,13.90
2018-10-11T04:30:37.006Z,13.90
2018-10-11T04:33:04.623Z,13.80
2018-10-11T04:35:32.187Z,13.70
2018-10-11T04:37:59.884Z,13.80
2018-10-11T04:40:27.523Z,13.40
2018-10-11T04:42:55.203Z,13.70
2018-10-11T04:45:22.934Z,13.20
2018-10-11T04:47:50.575Z,13.10
2018-10-11T04:50:18.211Z,13.20
2018-10-11T04:52:45.919Z,13.10
2018-10-11T04:55:13.538Z,12.90
2018-10-11T04:57:41.166Z,12.80
2018-10-11T05:00:08.819Z,12.90
2018-10-11T05:02:36.442Z,13.10
2018-10-11T05:05:04.183Z,13.30
2018-10-11T05:07:31.762Z,13.10
2018-10-11T05:09:59.446Z,12.80
2018-10-11T05:12:27.195Z,13.00
2018-10-11T05:14:54.995Z,13.10
2018-10-11T05:17:22.805Z,12.90
2018-10-11T05:19:50.447Z,12.90
2018-10-11T05:22:18.087Z,13.00
2018-10-11T05:24:45.735Z,12.90
2018-10-11T05:27:13.407Z,13.00
2018-10-11T05:29:41.262Z,12.80
2018-10-11T05:32:08.979Z,13.10
2018-10-11T05:34:36.623Z,13.10
2018-10-11T05:37:04.223Z,12.80
2018-10-11T05:39:31.903Z,13.20
2018-10-11T05:41:59.586Z,13.10
2018-10-11T05:44:27.295Z,13.10
2018-10-11T05:46:55.166Z,13.00
2018-10-11T05:49:22.835Z,13.00
2018-10-11T05:51:50.603Z,13.30
2018-10-11T05:54:18.315Z,13.00
2018-10-11T05:56:46.496Z,12.80
2018-10-11T05:59:14.210Z,12.80
2018-10-11T06:01:41.862Z,12.90
2018-10-11T06:04:10.438Z,13.10
2018-10-11T06:06:38.091Z,13.10
2018-10-11T06:09:07.056Z,13.20
2018-10-11T06:11:34.862Z,13.20
2018-10-11T06:14:02.555Z,13.00
2018-10-11T06:16:30.219Z,13.10
2018-10-11T06:18:57.898Z,13.10
2018-10-11T06:21:25.699Z,13.20
2018-10-11T06:23:53.380Z,13.30
2018-10-11T06:26:21.033Z,13.20
2018-10-11T06:28:48.729Z,13.30
2018-10-11T06:31:16.473Z,13.20
2018-10-11T06:33:44.527Z,13.20
2018-10-11T06:36:12.541Z,13.00
2018-10-11T06:38:40.223Z,13.20
2018-10-11T06:41:08.020Z,13.40
2018-10-11T06:43:35.795Z,13.40
2018-10-11T06:46:03.544Z,13.60
2018-10-11T06:48:31.355Z,13.30
2018-10-11T06:50:59.069Z,13.50
2018-10-11T06:53:26.815Z,13.30
2018-10-11T06:55:54.534Z,13.40
2018-10-11T06:58:22.066Z,13.40
2018-10-11T07:00:49.863Z,13.40
2018-10-11T07:03:17.555Z,13.90
2018-10-11T07:05:45.269Z,13.70
2018-10-11T07:08:12.940Z,13.40
2018-10-11T07:10:40.591Z,13.60
2018-10-11T07:13:08.528Z,13.50
2018-10-11T07:15:36.175Z,14.20
2018-10-11T07:18:03.771Z,14.20
2018-10-11T07:20:31.989Z,14.70
2018-10-11T07:22:59.631Z,14.70
2018-10-11T07:25:27.349Z,14.90
2018-10-11T07:27:54.970Z,14.80
2018-10-11T07:30:24.710Z,16.60
2018-10-11T07:32:52.323Z,18.50
2018-10-11T07:35:20.068Z,20.10
2018-10-11T07:37:47.598Z,21.00
2018-10-11T07:40:15.225Z,20.70
2018-10-11T07:42:42.907Z,20.70
2018-10-11T07:45:10.551Z,21.80
2018-10-11T07:47:38.203Z,23.00
2018-10-11T07:50:06.200Z,23.70
2018-10-11T07:52:33.820Z,24.30
2018-10-11T07:55:01.448Z,25.10
2018-10-11T07:57:30.034Z,25.30
2018-10-11T07:59:57.602Z,24.80
2018-10-11T08:02:25.206Z,24.00
2018-10-11T08:04:52.839Z,23.90
2018-10-11T08:07:20.586Z,24.40
2018-10-11T08:09:48.814Z,24.70
2018-10-11T08:12:18.470Z,24.90
2018-10-11T08:14:48.019Z,25.10
2018-10-11T08:17:17.060Z,24.70
2018-10-11T08:19:44.277Z,24.70
2018-10-11T08:22:12.177Z,23.90
2018-10-11T08:24:42.415Z,24.00
2018-10-11T08:27:10.314Z,24.80
2018-10-11T08:29:42.787Z,25.40
2018-10-11T08:32:10.519Z,25.40
2018-10-11T08:34:38.086Z,24.90
2018-10-11T08:37:06.099Z,24.70
2018-10-11T08:39:36.170Z,25.00
2018-10-11T08:42:04.635Z,25.20
2018-10-11T08:44:34.319Z,25.40
2018-10-11T08:47:01.970Z,25.20
2018-10-11T08:49:29.975Z,24.90
2018-10-11T08:51:58.179Z,25.60
2018-10-11T08:54:31.229Z,25.50
2018-10-11T08:57:00.527Z,25.60
2018-10-11T08:59:28.371Z,25.90
2018-10-11T09:01:55.908Z,26.60
2018-10-11T09:04:23.445Z,26.40
2018-10-11T09:06:51.099Z,25.60
2018-10-11T09:09:18.771Z,25.50
2018-10-11T09:11:46.387Z,25.40
2018-10-11T09:14:14.083Z,25.00
2018-10-11T09:16:42.706Z,25.40
2018-10-11T09:19:10.302Z,26.00
2018-10-11T09:21:37.948Z,26.30
2018-10-11T09:24:09.572Z,26.20
2018-10-11T09:26:37.246Z,26.30
2018-10-11T09:29:04.862Z,26.10
2018-10-11T09:31:32.510Z,26.30
2018-10-11T09:34:00.902Z,26.80
2018-10-11T09:36:28.597Z,26.30
2018-10-11T09:38:56.174Z,25.90
2018-10-11T09:41:23.811Z,25.80
2018-10-11T09:43:51.390Z,26.00
2018-10-11T09:46:19.198Z,26.10
2018-10-11T09:48:47.749Z,26.00
2018-10-11T09:51:15.306Z,26.40
2018-10-11T09:53:43.017Z,27.10
2018-10-11T09:56:10.599Z,26.70
2018-10-11T09:58:38.247Z,26.90
2018-10-11T10:01:21.682Z,27.30
2018-10-11T10:03:49.287Z,27.50
2018-10-11T10:06:16.819Z,27.40
2018-10-11T10:08:44.436Z,26.60
2018-10-11T10:11:13.868Z,26.30
2018-10-11T10:13:42.531Z,26.30
2018-10-11T10:16:10.196Z,26.60
2018-10-11T10:18:37.810Z,26.10
2018-10-11T10:21:06.423Z,25.80
2018-10-11T10:23:34.171Z,25.60
2018-10-11T10:26:01.815Z,25.60
2018-10-11T10:28:29.455Z,26.00
2018-10-11T10:30:57.607Z,26.20
2018-10-11T10:33:25.395Z,26.60
2018-10-11T10:35:53.010Z,26.80
2018-10-11T10:38:23.351Z,27.00
2018-10-11T10:40:51.034Z,27.10
2018-10-11T10:43:18.669Z,27.10
2018-10-11T10:45:46.267Z,27.20
2018-10-11T10:48:14.873Z,27.20
2018-10-11T10:50:42.450Z,27.20
2018-10-11T10:53:11.019Z,27.10
2018-10-11T10:55:38.595Z,27.30
2018-10-11T10:58:10.291Z,27.30
2018-10-11T11:00:37.934Z,27.50
2018-10-11T11:03:06.792Z,28.20
2018-10-11T11:05:34.396Z,28.30
2018-10-11T11:08:02.003Z,28.50
2018-10-11T11:10:30.481Z,29.20
2018-10-11T11:13:08.147Z,28.60
2018-10-11T11:15:36.499Z,28.60
2018-10-11T11:18:04.111Z,28.90
2018-10-11T11:20:31.651Z,28.90
2018-10-11T11:22:59.878Z,28.60
2018-10-11T11:25:28.142Z,28.80
2018-10-11T11:27:55.830Z,28.80
2018-10-11T11:30:23.447Z,29.00
2018-10-11T11:32:51.047Z,28.60
2018-10-11T11:35:19.612Z,28.40
2018-10-11T11:37:48.460Z,27.80
2018-10-11T11:40:16.075Z,27.70
2018-10-11T11:42:43.723Z,28.00
2018-10-11T11:45:11.368Z,28.50
2018-10-11T11:47:38.951Z,28.40
2018-10-11T11:50:06.919Z,27.70
2018-10-11T11:52:34.475Z,26.90
2018-10-11T11:55:02.089Z,26.50
2018-10-11T11:57:29.730Z,25.90
2018-10-11T11:59:57.339Z,25.10
2018-10-11T12:02:24.947Z,24.50
2018-10-11T12:04:52.553Z,23.90
2018-10-11T12:07:20.135Z,23.60
2018-10-11T12:09:47.906Z,23.80
2018-10-11T12:12:34.223Z,23.90
2018-10-11T12:15:02.095Z,24.80
2018-10-11T12:17:30.191Z,26.50
2018-10-11T12:19:57.830Z,27.40
2018-10-11T12:22:25.451Z,28.10
2018-10-11T12:24:53.107Z,27.90
2018-10-11T12:27:20.743Z,27.40
2018-10-11T12:29:48.436Z,26.80
2018-10-11T12:32:16.083Z,25.80
2018-10-11T12:34:43.699Z,24.90
2018-10-11T12:37:11.259Z,24.30
2018-10-11T12:39:38.842Z,24.00
2018-10-11T12:42:06.527Z,23.40
2018-10-11T12:44:34.983Z,23.20
2018-10-11T12:47:02.591Z,23.30
2018-10-11T12:49:30.265Z,23.20
2018-10-11T12:51:58.108Z,23.20
2018-10-11T12:54:25.765Z,23.20
2018-10-11T12:56:53.437Z,23.20
2018-10-11T12:59:20.938Z,23.20
2018-10-11T13:01:48.579Z,23.20
2018-10-11T13:04:16.147Z,22.80
2018-10-11T13:06:43.782Z,22.60
2018-10-11T13:09:11.437Z,22.50
2018-10-11T13:11:39.103Z,22.60
2018-10-11T13:14:06.775Z,22.50
2018-10-11T13:16:34.482Z,22.50
2018-10-11T13:19:02.090Z,22.30
2018-10-11T13:21:29.707Z,22.40
2018-10-11T13:23:57.285Z,22.40
2018-10-11T13:26:24.904Z,22.10
2018-10-11T13:28:52.535Z,22.20
2018-10-11T13:31:20.160Z,22.20
2018-10-11T13:33:51.818Z,22.10
2018-10-11T13:36:15.605Z,22.20
2018-10-11T13:38:43.403Z,22.20
2018-10-11T13:41:11.223Z,22.30
2018-10-11T13:43:38.783Z,22.20
2018-10-11T13:46:06.458Z,22.10
2018-10-11T13:48:34.263Z,22.00
2018-10-11T13:51:02.171Z,22.00
2018-10-11T13:53:29.759Z,22.10
2018-10-11T13:55:59.084Z,22.20
2018-10-11T13:58:25.657Z,22.20
2018-10-11T14:00:56.899Z,22.20
2018-10-11T14:03:25.511Z,22.20
2018-10-11T14:05:53.151Z,22.10
2018-10-11T14:08:21.894Z,22.00
2018-10-11T14:10:49.575Z,21.80
2018-10-11T14:13:20.485Z,21.80
2018-10-11T14:15:45.451Z,21.90
2018-10-11T14:18:13.303Z,21.80
2018-10-11T14:20:40.978Z,21.90
2018-10-11T14:23:08.575Z,21.70
2018-10-11T14:25:36.935Z,21.60
2018-10-11T14:28:04.571Z,21.70
2018-10-11T14:30:32.259Z,21.50
2018-10-11T14:32:59.944Z,21.70
2018-10-11T14:35:28.433Z,21.70
2018-10-11T14:37:56.079Z,21.60
2018-10-11T14:40:24.464Z,21.80
2018-10-11T14:42:52.143Z,21.70
2018-10-11T14:45:19.849Z,21.60
2018-10-11T14:47:47.519Z,21.60
2018-10-11T14:50:15.118Z,21.60
2018-10-11T14:52:42.755Z,21.50
2018-10-11T14:55:10.384Z,21.60
2018-10-11T14:57:37.995Z,21.40
2018-10-11T15:00:05.955Z,21.50
2018-10-11T15:02:33.655Z,21.30
2018-10-11T15:05:02.023Z,21.40
2018-10-11T15:07:29.679Z,21.40
2018-10-11T15:09:57.306Z,21.60
2018-10-11T15:12:24.939Z,21.30
2018-10-11T15:14:52.554Z,21.30
2018-10-11T15:17:20.219Z,21.10
2018-10-11T15:19:47.979Z,21.10
2018-10-11T15:22:15.671Z,21.30
2018-10-11T15:24:43.307Z,21.30
2018-10-11T15:27:10.939Z,21.30
2018-10-11T15:29:40.667Z,21.30
2018-10-11T15:32:09.140Z,21.00
2018-10-11T15:34:36.754Z,21.20
2018-10-11T15:37:04.400Z,21.20
2018-10-11T15:39:32.026Z,21.10
2018-10-11T15:41:59.636Z,21.40
2018-10-11T15:44:27.250Z,21.10
2018-10-11T15:46:55.150Z,21.20
2018-10-11T15:49:22.787Z,21.10
2018-10-11T15:51:50.383Z,21.00
2018-10-11T15:54:18.271Z,21.00
2018-10-11T15:56:45.854Z,20.90
2018-10-11T15:59:13.482Z,21.00
2018-10-11T16:01:41.111Z,20.90
2018-10-11T16:04:08.762Z,20.90
2018-10-11T16:06:36.358Z,21.00
2018-10-11T16:09:06.155Z,21.20
2018-10-11T16:11:33.833Z,20.90
2018-10-11T16:14:01.443Z,21.00
2018-10-11T16:16:29.016Z,20.80
2018-10-11T16:18:56.657Z,20.80
2018-10-11T16:21:24.226Z,20.90
2018-10-11T16:23:51.886Z,20.80
2018-10-11T16:26:19.532Z,20.80
2018-10-11T16:28:47.183Z,20.80
2018-10-11T16:31:14.798Z,20.80
2018-10-11T16:33:42.411Z,20.70
2018-10-11T16:36:10.068Z,20.60
2018-10-11T16:38:37.763Z,20.70
2018-10-11T16:41:05.473Z,20.70
2018-10-11T16:43:33.407Z,20.60
2018-10-11T16:46:01.043Z,20.70
2018-10-11T16:48:28.730Z,20.50
2018-10-11T16:50:56.659Z,20.70
2018-10-11T16:53:24.358Z,20.50
2018-10-11T16:55:52.059Z,20.50
2018-10-11T16:58:19.740Z,20.40
2018-10-11T17:00:47.515Z,20.30
2018-10-11T17:03:15.143Z,20.60
2018-10-11T17:05:42.774Z,20.20
2018-10-11T17:08:10.486Z,20.50
2018-10-11T17:10:38.181Z,20.20
2018-10-11T17:13:06.019Z,20.20
2018-10-11T17:15:33.616Z,20.30
2018-10-11T17:18:01.382Z,20.30
2018-10-11T17:20:29.015Z,20.20
2018-10-11T17:22:56.715Z,20.20
2018-10-11T17:25:24.312Z,20.10
2018-10-11T17:27:52.092Z,20.50
2018-10-11T17:30:19.535Z,20.10
2018-10-11T17:32:47.219Z,20.10
2018-10-11T17:35:14.948Z,20.00
2018-10-11T17:37:42.635Z,20.10
2018-10-11T17:40:10.690Z,19.90
2018-10-11T17:42:38.440Z,19.50
2018-10-11T17:45:06.734Z,19.20
2018-10-11T17:47:34.475Z,19.50
2018-10-11T17:50:02.225Z,19.90
2018-10-11T17:52:29.814Z,19.60
2018-10-11T17:54:58.058Z,19.50
2018-10-11T17:57:26.219Z,19.40
2018-10-11T17:59:53.851Z,19.50
2018-10-11T18:02:22.062Z,19.30
2018-10-11T18:04:51.079Z,19.40
2018-10-11T18:07:18.685Z,19.20
2018-10-11T18:09:46.332Z,19.30
2018-10-11T18:12:13.999Z,19.30
2018-10-11T18:14:41.643Z,19.30
2018-10-11T18:17:09.300Z,19.20
2018-10-11T18:19:36.887Z,19.40
2018-10-11T18:22:04.592Z,19.10
2018-10-11T18:24:32.194Z,19.40
2018-10-11T18:26:59.810Z,19.00
2018-10-11T18:29:27.395Z,19.10
2018-10-11T18:31:55.016Z,19.30
2018-10-11T18:34:22.611Z,19.10
2018-10-11T18:36:50.294Z,18.90
2018-10-11T18:39:17.887Z,18.80
2018-10-11T18:41:45.538Z,18.80
2018-10-11T18:44:13.142Z,18.70
2018-10-11T18:46:41.505Z,18.20
2018-10-11T18:49:09.631Z,18.40
2018-10-11T18:51:37.223Z,18.30
2018-10-11T18:54:04.958Z,18.50
2018-10-11T18:56:32.630Z,18.50
2018-10-11T18:59:00.318Z,18.40
2018-10-11T19:01:27.880Z,18.40
2018-10-11T19:03:55.470Z,18.60
2018-10-11T19:06:23.193Z,18.40
2018-10-11T19:08:50.826Z,18.20
2018-10-11T19:11:18.414Z,18.40
2018-10-11T19:13:46.054Z,18.40
2018-10-11T19:16:13.651Z,18.50
2018-10-11T19:18:41.223Z,18.30
2018-10-11T19:21:08.827Z,18.50
2018-10-11T19:23:36.415Z,18.60
2018-10-11T19:26:04.100Z,18.40
2018-10-11T19:28:31.687Z,18.40
2018-10-11T19:30:59.307Z,18.00
2018-10-11T19:33:27.309Z,18.00
2018-10-11T19:35:54.959Z,17.80
2018-10-11T19:38:22.762Z,18.30
2018-10-11T19:40:51.119Z,18.30
2018-10-11T19:43:21.016Z,18.20
2018-10-11T19:45:48.699Z,18.00
2018-10-11T19:48:16.645Z,18.30
2018-10-11T19:50:44.447Z,18.10
2018-10-11T19:53:12.077Z,18.30
2018-10-11T19:55:40.264Z,18.00
2018-10-11T19:58:07.970Z,18.00
2018-10-11T20:00:35.719Z,18.40
2018-10-11T20:03:03.884Z,17.90
2018-10-11T20:05:31.690Z,17.90
2018-10-11T20:07:59.497Z,17.90
2018-10-11T20:10:27.299Z,18.20
2018-10-11T20:12:55.113Z,17.90
2018-10-11T20:15:22.823Z,17.80
2018-10-11T20:17:50.654Z,18.20
2018-10-11T20:20:19.150Z,18.20
2018-10-11T20:22:46.703Z,17.90
2018-10-11T20:25:14.618Z,17.90
2018-10-11T20:27:42.714Z,18.00
2018-10-11T20:30:10.372Z,18.20
2018-10-11T20:32:38.435Z,17.90
2018-10-11T20:35:06.149Z,17.90
2018-10-11T20:37:33.991Z,17.90
2018-10-11T20:40:01.621Z,17.90
2018-10-11T20:42:29.343Z,17.90
2018-10-11T20:44:57.175Z,18.00
2018-10-11T20:47:25.063Z,17.50
2018-10-11T20:49:52.833Z,18.00
2018-10-11T20:52:20.797Z,17.90
2018-10-11T20:54:48.629Z,18.00
2018-10-11T20:57:16.906Z,18.10
2018-10-11T20:59:45.566Z,17.80
2018-10-11T21:02:13.290Z,17.90
2018-10-11T21:04:41.107Z,17.90
2018-10-11T21:07:08.758Z,17.90
2018-10-11T21:09:36.420Z,17.90
2018-10-11T21:12:04.195Z,17.80
2018-10-11T21:14:31.799Z,17.60
2018-10-11T21:16:59.548Z,17.30
2018-10-11T21:19:27.204Z,17.70
2018-10-11T21:21:54.858Z,17.60
2018-10-11T21:24:22.520Z,17.70
2018-10-11T21:26:50.187Z,17.70
2018-10-11T21:29:17.786Z,17.70
2018-10-11T21:31:45.487Z,17.80
2018-10-11T21:34:13.068Z,17.50
2018-10-11T21:36:40.682Z,17.20
2018-10-11T21:39:09.998Z,17.60
2018-10-11T21:41:38.123Z,17.60
2018-10-11T21:44:06.658Z,17.70
2018-10-11T21:46:34.630Z,17.40
2018-10-11T21:49:02.230Z,17.40
2018-10-11T21:51:29.835Z,17.50
2018-10-11T21:53:57.473Z,17.30
2018-10-11T21:56:25.466Z,17.80
2018-10-11T21:58:53.175Z,17.70
2018-10-11T22:01:24.479Z,17.40
2018-10-11T22:03:52.525Z,17.50
2018-10-11T22:06:20.267Z,17.20
2018-10-11T22:08:47.956Z,17.20
2018-10-11T22:11:15.578Z,17.30
2018-10-11T22:13:43.239Z,17.30
2018-10-11T22:16:10.878Z,17.20
2018-10-11T22:18:39.263Z,17.20
2018-10-11T22:21:07.379Z,17.30
2018-10-11T22:23:35.051Z,17.20
2018-10-11T22:26:02.720Z,17.10
2018-10-11T22:28:30.326Z,17.30
2018-10-11T22:30:57.971Z,17.20
2018-10-11T22:33:25.954Z,17.10
2018-10-11T22:35:53.962Z,17.40
2018-10-11T22:38:21.532Z,17.40
2018-10-11T22:40:49.199Z,17.10
2018-10-11T22:43:16.807Z,17.30
2018-10-11T22:45:44.507Z,17.30
2018-10-11T22:48:12.229Z,17.00
2018-10-11T22:50:39.922Z,17.10
2018-10-11T22:53:07.594Z,16.70
2018-10-11T22:55:35.279Z,16.80
2018-10-11T22:58:03.627Z,17.00
2018-10-11T23:00:31.262Z,16.40
2018-10-11T23:02:58.863Z,16.70
2018-10-11T23:05:26.507Z,16.60
2018-10-11T23:07:54.148Z,16.30
2018-10-11T23:10:22.223Z,16.40
2018-10-11T23:12:49.905Z,16.20
2018-10-11T23:15:17.487Z,16.30
2018-10-11T23:17:45.098Z,16.10
2018-10-11T23:20:12.714Z,16.20
2018-10-11T23:22:41.265Z,16.10
2018-10-11T23:25:09.491Z,16.20
2018-10-11T23:27:37.112Z,16.10
2018-10-11T23:30:04.958Z,16.30
2018-10-11T23:32:32.554Z,16.30
2018-10-11T23:35:00.131Z,16.10
2018-10-11T23:37:27.734Z,16.30
2018-10-11T23:39:55.419Z,16.20
2018-10-11T23:42:23.138Z,16.60
2018-10-11T23:44:50.699Z,16.50
2018-10-11T23:47:18.355Z,16.50
2018-10-11T23:49:45.943Z,16.20
2018-10-11T23:52:13.585Z,16.30
2018-10-11T23:54:41.286Z,16.20
2018-10-11T23:57:08.961Z,16.30
2018-10-11T23:59:36.544Z,16.70
